^^
Saratoga-Weather Station Historical Data
Daily Summary for June 18, 2020 Units:  Both    English   Metric
Daily Weekly Monthly Yearly Custom
  High: Low: Average:
Temperature: 76.1 °F /  24.5 °C 59 °F /  15 °C 66 °F /  18.9 °C
Dew Point: 65.1 °F /  18.4 °C 56.8 °F /  13.8 °C 59.7 °F /  15.4 °C
Humidity: 96% 55% 82%
Wind Speed: 18mph /  29km/h - 1.4mph /  2.3km/h
Wind Gust: 18mph /  29km/h - -
Wind- - West
Pressure: 29.9 in /  1011.9 hPa 29.8 in /  1009.8 hPa -
Precipitation: 0.72 in /  18.3 mm    
Historical Graphs
 
 
Tabular Data for June 18, 2020
Time Temperature Dew Point Pressure Wind Wind Speed Wind Gust Humidity Rainfall Rate (Hourly) solar
00:00 65.1 °F /  18.4 °C 58.5 °F /  14.7 °C 29.8in /  1010.5hPa Calm   1mph /  1.6km/h 79% 0in /  0.0mm 0 W/m2
00:05 65.1 °F /  18.4 °C 58.5 °F /  14.7 °C 29.8in /  1010.5hPa Calm     79% 0in /  0.0mm 0 W/m2
00:10 65.1 °F /  18.4 °C 58.5 °F /  14.7 °C 29.8in /  1010.5hPa Calm   1mph /  1.6km/h 79% 0in /  0.0mm 0 W/m2
00:15 65.1 °F /  18.4 °C 58.5 °F /  14.7 °C 29.8in /  1010.5hPa West 0.9mph /  1.4km/h 3mph /  4.8km/h 79% 0in /  0.0mm 0 W/m2
00:20 65.5 °F /  18.6 °C 58.8 °F /  14.9 °C 29.8in /  1010.5hPa Calm     79% 0in /  0.0mm 0 W/m2
00:25 65.7 °F /  18.7 °C 59 °F /  15 °C 29.9in /  1010.8hPa Calm   3mph /  4.8km/h 79% 0in /  0.0mm 0 W/m2
00:30 65.7 °F /  18.7 °C 59 °F /  15 °C 29.9in /  1010.8hPa Calm     79% 0in /  0.0mm 0 W/m2
00:35 65.5 °F /  18.6 °C 59.2 °F /  15.1 °C 29.9in /  1010.8hPa Calm   1mph /  1.6km/h 80% 0in /  0.0mm 0 W/m2
00:40 65.3 °F /  18.5 °C 58.6 °F /  14.8 °C 29.9in /  1010.8hPa Calm     79% 0in /  0.0mm 0 W/m2
00:45 65.1 °F /  18.4 °C 58.8 °F /  14.9 °C 29.9in /  1010.8hPa Calm     80% 0in /  0.0mm 0 W/m2
00:50 64.9 °F /  18.3 °C 58.6 °F /  14.8 °C 29.9in /  1010.8hPa West 0.9mph /  1.4km/h 1mph /  1.6km/h 80% 0in /  0.0mm 0 W/m2
00:55 64.8 °F /  18.2 °C 58.8 °F /  14.9 °C 29.9in /  1010.8hPa Calm   2mph /  3.2km/h 81% 0in /  0.0mm 0 W/m2
01:00 64.6 °F /  18.1 °C 58.6 °F /  14.8 °C 29.9in /  1010.8hPa Calm   1mph /  1.6km/h 81% 0in /  0.0mm 0 W/m2
01:05 64.6 °F /  18.1 °C 58.6 °F /  14.8 °C 29.9in /  1010.8hPa Calm   2mph /  3.2km/h 81% 0in /  0.0mm 0 W/m2
01:10 64.6 °F /  18.1 °C 58.3 °F /  14.6 °C 29.9in /  1010.8hPa West 0.9mph /  1.4km/h 2mph /  3.2km/h 80% 0in /  0.0mm 0 W/m2
01:15 64.8 °F /  18.2 °C 58.8 °F /  14.9 °C 29.9in /  1010.8hPa Calm   1mph /  1.6km/h 81% 0in /  0.0mm 0 W/m2
01:20 64.8 °F /  18.2 °C 58.5 °F /  14.7 °C 29.9in /  1010.8hPa NW 4.9mph /  7.9km/h 8mph /  12.9km/h 80% 0in /  0.0mm 0 W/m2
01:25 65.1 °F /  18.4 °C 58.5 °F /  14.7 °C 29.9in /  1010.8hPa WSW 2mph /  3.2km/h 5mph /  8km/h 79% 0in /  0.0mm 0 W/m2
01:30 65.5 °F /  18.6 °C 58.5 °F /  14.7 °C 29.9in /  1010.8hPa West 0.9mph /  1.4km/h 8mph /  12.9km/h 78% 0in /  0.0mm 0 W/m2
01:35 65.7 °F /  18.7 °C 58.6 °F /  14.8 °C 29.9in /  1010.8hPa West 2.9mph /  4.7km/h 6mph /  9.7km/h 78% 0in /  0.0mm 0 W/m2
01:40 65.7 °F /  18.7 °C 58.6 °F /  14.8 °C 29.9in /  1010.8hPa WNW 2.9mph /  4.7km/h 4mph /  6.4km/h 78% 0in /  0.0mm 0 W/m2
01:45 65.7 °F /  18.7 °C 58.6 °F /  14.8 °C 29.9in /  1010.8hPa WNW 2mph /  3.2km/h 4mph /  6.4km/h 78% 0in /  0.0mm 0 W/m2
01:50 65.5 °F /  18.6 °C 58.5 °F /  14.7 °C 29.8in /  1010.5hPa WSW 4mph /  6.4km/h 5mph /  8km/h 78% 0in /  0.0mm 0 W/m2
01:55 65.5 °F /  18.6 °C 58.5 °F /  14.7 °C 29.8in /  1010.5hPa WNW 2.9mph /  4.7km/h 3mph /  4.8km/h 78% 0in /  0.0mm 0 W/m2
02:00 65.5 °F /  18.6 °C 58.8 °F /  14.9 °C 29.8in /  1010.5hPa Calm   5mph /  8km/h 79% 0in /  0.0mm 0 W/m2
02:05 65.1 °F /  18.4 °C 58.5 °F /  14.7 °C 29.8in /  1010.5hPa NW 0.9mph /  1.4km/h 4mph /  6.4km/h 79% 0in /  0.0mm 0 W/m2
02:10 64.9 °F /  18.3 °C 58.3 °F /  14.6 °C 29.8in /  1010.5hPa WSW 4mph /  6.4km/h 5mph /  8km/h 79% 0in /  0.0mm 0 W/m2
02:15 64.8 °F /  18.2 °C 58.5 °F /  14.7 °C 29.8in /  1010.5hPa WNW 0.9mph /  1.4km/h 4mph /  6.4km/h 80% 0in /  0.0mm 0 W/m2
02:20 64.6 °F /  18.1 °C 58.3 °F /  14.6 °C 29.8in /  1010.5hPa West 2.9mph /  4.7km/h 6mph /  9.7km/h 80% 0in /  0.0mm 0 W/m2
02:25 64.6 °F /  18.1 °C 58.3 °F /  14.6 °C 29.8in /  1010.5hPa WSW 2mph /  3.2km/h 7mph /  11.3km/h 80% 0in /  0.0mm 0 W/m2
02:30 64.6 °F /  18.1 °C 58.3 °F /  14.6 °C 29.8in /  1010.5hPa SW 0.9mph /  1.4km/h 4mph /  6.4km/h 80% 0in /  0.0mm 0 W/m2
02:35 64.2 °F /  17.9 °C 58.3 °F /  14.6 °C 29.8in /  1010.5hPa SW 2.9mph /  4.7km/h 4mph /  6.4km/h 81% 0in /  0.0mm 0 W/m2
02:40 64.2 °F /  17.9 °C 58.3 °F /  14.6 °C 29.8in /  1010.5hPa WNW 2mph /  3.2km/h 3mph /  4.8km/h 81% 0in /  0.0mm 0 W/m2
02:45 64 °F /  17.8 °C 58.1 °F /  14.5 °C 29.8in /  1010.5hPa West 0.9mph /  1.4km/h 3mph /  4.8km/h 81% 0in /  0.0mm 0 W/m2
02:50 64 °F /  17.8 °C 58.1 °F /  14.5 °C 29.8in /  1010.5hPa WNW 2mph /  3.2km/h 3mph /  4.8km/h 81% 0in /  0.0mm 0 W/m2
02:55 64.2 °F /  17.9 °C 58.3 °F /  14.6 °C 29.8in /  1010.5hPa West 0.9mph /  1.4km/h 3mph /  4.8km/h 81% 0in /  0.0mm 0 W/m2
03:01 64 °F /  17.8 °C 58.1 °F /  14.5 °C 29.8in /  1010.5hPa West 2.9mph /  4.7km/h 3mph /  4.8km/h 81% 0in /  0.0mm 0 W/m2
03:06 64 °F /  17.8 °C 58.1 °F /  14.5 °C 29.8in /  1010.5hPa WNW 0.9mph /  1.4km/h 7mph /  11.3km/h 81% 0in /  0.0mm 0 W/m2
03:11 64 °F /  17.8 °C 58.1 °F /  14.5 °C 29.8in /  1010.5hPa West 0.9mph /  1.4km/h 2mph /  3.2km/h 81% 0in /  0.0mm 0 W/m2
03:16 64 °F /  17.8 °C 58.1 °F /  14.5 °C 29.8in /  1010.5hPa West 2mph /  3.2km/h 7mph /  11.3km/h 81% 0in /  0.0mm 0 W/m2
03:21 64 °F /  17.8 °C 58.5 °F /  14.7 °C 29.8in /  1010.5hPa West 0.9mph /  1.4km/h 3mph /  4.8km/h 82% 0in /  0.0mm 0 W/m2
03:26 64 °F /  17.8 °C 58.5 °F /  14.7 °C 29.8in /  1010.5hPa WNW 2mph /  3.2km/h 3mph /  4.8km/h 82% 0in /  0.0mm 0 W/m2
03:31 64 °F /  17.8 °C 58.5 °F /  14.7 °C 29.8in /  1010.5hPa West 2mph /  3.2km/h 3mph /  4.8km/h 82% 0in /  0.0mm 0 W/m2
03:36 63.9 °F /  17.7 °C 58.3 °F /  14.6 °C 29.8in /  1010.5hPa West 2mph /  3.2km/h 4mph /  6.4km/h 82% 0in /  0.0mm 0 W/m2
03:41 63.9 °F /  17.7 °C 58.3 °F /  14.6 °C 29.9in /  1010.8hPa WSW 2mph /  3.2km/h 5mph /  8km/h 82% 0in /  0.0mm 0 W/m2
03:46 63.7 °F /  17.6 °C 58.1 °F /  14.5 °C 29.8in /  1010.5hPa WSW 2mph /  3.2km/h 3mph /  4.8km/h 82% 0in /  0.0mm 0 W/m2
03:51 63.7 °F /  17.6 °C 58.5 °F /  14.7 °C 29.8in /  1010.5hPa West 2.9mph /  4.7km/h 4mph /  6.4km/h 83% 0in /  0.0mm 0 W/m2
03:56 63.7 °F /  17.6 °C 58.5 °F /  14.7 °C 29.8in /  1010.5hPa West 2mph /  3.2km/h 5mph /  8km/h 83% 0in /  0.0mm 0 W/m2
04:01 63.5 °F /  17.5 °C 58.3 °F /  14.6 °C 29.8in /  1010.5hPa Calm   2mph /  3.2km/h 83% 0in /  0.0mm 0 W/m2
04:06 63.3 °F /  17.4 °C 58.1 °F /  14.5 °C 29.9in /  1010.8hPa WNW 2mph /  3.2km/h 5mph /  8km/h 83% 0in /  0.0mm 0 W/m2
04:11 63.3 °F /  17.4 °C 58.1 °F /  14.5 °C 29.9in /  1010.8hPa SW 0.9mph /  1.4km/h 3mph /  4.8km/h 83% 0in /  0.0mm 0 W/m2
04:16 63.3 °F /  17.4 °C 58.1 °F /  14.5 °C 29.9in /  1010.8hPa West 2mph /  3.2km/h 6mph /  9.7km/h 83% 0in /  0.0mm 0 W/m2
04:21 63.3 °F /  17.4 °C 58.5 °F /  14.7 °C 29.9in /  1010.8hPa Calm   4mph /  6.4km/h 84% 0in /  0.0mm 0 W/m2
04:26 63.3 °F /  17.4 °C 58.5 °F /  14.7 °C 29.9in /  1010.8hPa WNW 0.9mph /  1.4km/h 5mph /  8km/h 84% 0in /  0.0mm 0 W/m2
04:31 63.1 °F /  17.3 °C 58.3 °F /  14.6 °C 29.9in /  1010.8hPa WNW 2mph /  3.2km/h 3mph /  4.8km/h 84% 0in /  0.0mm 0 W/m2
04:36 63 °F /  17.2 °C 58.1 °F /  14.5 °C 29.9in /  1010.8hPa WNW 6mph /  9.7km/h 6mph /  9.7km/h 84% 0in /  0.0mm 0 W/m2
04:41 63 °F /  17.2 °C 58.5 °F /  14.7 °C 29.9in /  1010.8hPa SSW 2mph /  3.2km/h 2mph /  3.2km/h 85% 0in /  0.0mm 0 W/m2
04:46 63 °F /  17.2 °C 58.5 °F /  14.7 °C 29.9in /  1010.8hPa West 2mph /  3.2km/h 2mph /  3.2km/h 85% 0in /  0.0mm 0 W/m2
04:51 63 °F /  17.2 °C 58.5 °F /  14.7 °C 29.9in /  1010.8hPa West 2.9mph /  4.7km/h 4mph /  6.4km/h 85% 0in /  0.0mm 0 W/m2
04:56 63 °F /  17.2 °C 58.5 °F /  14.7 °C 29.9in /  1010.8hPa Calm   4mph /  6.4km/h 85% 0in /  0.0mm 0 W/m2
05:01 62.8 °F /  17.1 °C 58.3 °F /  14.6 °C 29.9in /  1010.8hPa West 2mph /  3.2km/h 3mph /  4.8km/h 85% 0in /  0.0mm 0 W/m2
05:06 62.8 °F /  17.1 °C 58.3 °F /  14.6 °C 29.9in /  1010.8hPa West 0.9mph /  1.4km/h 4mph /  6.4km/h 85% 0in /  0.0mm 0 W/m2
05:11 62.8 °F /  17.1 °C 58.3 °F /  14.6 °C 29.9in /  1010.8hPa West 2.9mph /  4.7km/h 3mph /  4.8km/h 85% 0in /  0.0mm 0 W/m2
05:16 62.8 °F /  17.1 °C 58.3 °F /  14.6 °C 29.9in /  1010.8hPa West 2mph /  3.2km/h 4mph /  6.4km/h 85% 0in /  0.0mm 0 W/m2
05:21 62.8 °F /  17.1 °C 58.3 °F /  14.6 °C 29.9in /  1010.8hPa WSW 2mph /  3.2km/h 4mph /  6.4km/h 85% 0in /  0.0mm 0 W/m2
05:26 62.8 °F /  17.1 °C 58.3 °F /  14.6 °C 29.9in /  1010.8hPa WSW 0.9mph /  1.4km/h 4mph /  6.4km/h 85% 0in /  0.0mm 0 W/m2
05:31 62.8 °F /  17.1 °C 58.3 °F /  14.6 °C 29.9in /  1010.8hPa SW 2.9mph /  4.7km/h 4mph /  6.4km/h 85% 0in /  0.0mm 0 W/m2
05:36 62.8 °F /  17.1 °C 58.3 °F /  14.6 °C 29.8in /  1010.5hPa WNW 0.9mph /  1.4km/h 3mph /  4.8km/h 85% 0in /  0.0mm 0 W/m2
05:42 62.8 °F /  17.1 °C 58.3 °F /  14.6 °C 29.8in /  1010.5hPa Calm   4mph /  6.4km/h 85% 0in /  0.0mm 0 W/m2
05:47 62.6 °F /  17 °C 58.1 °F /  14.5 °C 29.8in /  1010.5hPa NW 0.9mph /  1.4km/h 2mph /  3.2km/h 85% 0in /  0.0mm 0 W/m2
05:52 62.4 °F /  16.9 °C 57.9 °F /  14.4 °C 29.8in /  1010.5hPa WNW 2mph /  3.2km/h 4mph /  6.4km/h 85% 0in /  0.0mm 0 W/m2
05:57 62.4 °F /  16.9 °C 57.9 °F /  14.4 °C 29.8in /  1010.5hPa WNW 0.9mph /  1.4km/h 2mph /  3.2km/h 85% 0in /  0.0mm 0 W/m2
06:02 62.2 °F /  16.8 °C 57.9 °F /  14.4 °C 29.8in /  1010.5hPa West 2mph /  3.2km/h 4mph /  6.4km/h 86% 0in /  0.0mm 0 W/m2
06:07 62.2 °F /  16.8 °C 57.9 °F /  14.4 °C 29.8in /  1010.5hPa West 0.9mph /  1.4km/h 2mph /  3.2km/h 86% 0in /  0.0mm 0 W/m2
06:12 62.2 °F /  16.8 °C 57.9 °F /  14.4 °C 29.8in /  1010.5hPa WSW 2mph /  3.2km/h 2mph /  3.2km/h 86% 0in /  0.0mm 0 W/m2
06:17 62.1 °F /  16.7 °C 57.7 °F /  14.3 °C 29.8in /  1010.5hPa West 2.9mph /  4.7km/h 3mph /  4.8km/h 86% 0in /  0.0mm 0 W/m2
06:22 62.1 °F /  16.7 °C 57.7 °F /  14.3 °C 29.8in /  1010.5hPa Calm   1mph /  1.6km/h 86% 0in /  0.0mm 0 W/m2
06:27 62.1 °F /  16.7 °C 57.7 °F /  14.3 °C 29.8in /  1010.5hPa Calm   3mph /  4.8km/h 86% 0in /  0.0mm 0 W/m2
06:33 61.9 °F /  16.6 °C 57.6 °F /  14.2 °C 29.8in /  1010.5hPa Calm   1mph /  1.6km/h 86% 0in /  0.0mm 0 W/m2
06:38 61.9 °F /  16.6 °C 57.6 °F /  14.2 °C 29.8in /  1010.5hPa NW 0.9mph /  1.4km/h 1mph /  1.6km/h 86% 0in /  0.0mm 0 W/m2
06:43 61.7 °F /  16.5 °C 57.7 °F /  14.3 °C 29.9in /  1010.8hPa Calm   1mph /  1.6km/h 87% 0in /  0.0mm 5 W/m2
06:48 61.5 °F /  16.4 °C 57.6 °F /  14.2 °C 29.9in /  1010.8hPa Calm   1mph /  1.6km/h 87% 0in /  0.0mm 7 W/m2
06:53 61.3 °F /  16.3 °C 57.4 °F /  14.1 °C 29.9in /  1010.8hPa Calm     87% 0in /  0.0mm 9 W/m2
06:58 61.2 °F /  16.2 °C 57.2 °F /  14 °C 29.9in /  1010.8hPa Calm   2mph /  3.2km/h 87% 0in /  0.0mm 11 W/m2
07:03 61 °F /  16.1 °C 57.4 °F /  14.1 °C 29.9in /  1010.8hPa Calm   2mph /  3.2km/h 88% 0in /  0.0mm 11 W/m2
07:08 60.6 °F /  15.9 °C 57 °F /  13.9 °C 29.9in /  1010.8hPa NW 0.9mph /  1.4km/h 2mph /  3.2km/h 88% 0in /  0.0mm 12 W/m2
07:13 60.4 °F /  15.8 °C 57.2 °F /  14 °C 29.9in /  1010.8hPa Calm     89% 0in /  0.0mm 11 W/m2
07:18 60.4 °F /  15.8 °C 57.2 °F /  14 °C 29.9in /  1010.8hPa Calm   2mph /  3.2km/h 89% 0in /  0.0mm 12 W/m2
07:23 60.3 °F /  15.7 °C 57 °F /  13.9 °C 29.9in /  1010.8hPa Calm     89% 0in /  0.0mm 14 W/m2
07:28 60.3 °F /  15.7 °C 57.4 °F /  14.1 °C 29.9in /  1010.8hPa Calm     90% 0in /  0.0mm 19 W/m2
07:33 60.3 °F /  15.7 °C 57.4 °F /  14.1 °C 29.9in /  1010.8hPa NW 2mph /  3.2km/h 2mph /  3.2km/h 90% 0in /  0.0mm 21 W/m2
07:38 60.6 °F /  15.9 °C 57.7 °F /  14.3 °C 29.9in /  1011.2hPa West 2mph /  3.2km/h 6mph /  9.7km/h 90% 0in /  0.0mm 21 W/m2
07:43 61 °F /  16.1 °C 58.1 °F /  14.5 °C 29.9in /  1011.2hPa WNW 2.9mph /  4.7km/h 7mph /  11.3km/h 90% 0in /  0.0mm 23 W/m2
07:48 61.3 °F /  16.3 °C 58.1 °F /  14.5 °C 29.9in /  1010.8hPa West 2mph /  3.2km/h 4mph /  6.4km/h 89% 0in /  0.0mm 33 W/m2
07:53 61.7 °F /  16.5 °C 58.5 °F /  14.7 °C 29.9in /  1010.8hPa WNW 2mph /  3.2km/h 3mph /  4.8km/h 89% 0in /  0.0mm 37 W/m2
07:58 62.2 °F /  16.8 °C 58.6 °F /  14.8 °C 29.9in /  1010.8hPa NNW 0.9mph /  1.4km/h 4mph /  6.4km/h 88% 0in /  0.0mm 39 W/m2
08:03 62.4 °F /  16.9 °C 58.5 °F /  14.7 °C 29.9in /  1011.2hPa NE 0.9mph /  1.4km/h 2mph /  3.2km/h 87% 0in /  0.0mm 39 W/m2
08:08 62.6 °F /  17 °C 58.6 °F /  14.8 °C 29.9in /  1011.2hPa Calm   1mph /  1.6km/h 87% 0in /  0.0mm 42 W/m2
08:13 63 °F /  17.2 °C 59 °F /  15 °C 29.9in /  1011.2hPa NE 0.9mph /  1.4km/h 2mph /  3.2km/h 87% 0in /  0.0mm 42 W/m2
08:18 63.3 °F /  17.4 °C 59 °F /  15 °C 29.9in /  1011.2hPa NNW 0.9mph /  1.4km/h 1mph /  1.6km/h 86% 0in /  0.0mm 44 W/m2
08:23 64 °F /  17.8 °C 59.4 °F /  15.2 °C 29.9in /  1011.2hPa NNW 0.9mph /  1.4km/h 2mph /  3.2km/h 85% 0in /  0.0mm 47 W/m2
08:28 64.4 °F /  18 °C 59.5 °F /  15.3 °C 29.9in /  1011.2hPa WNW 0.9mph /  1.4km/h 6mph /  9.7km/h 84% 0in /  0.0mm 51 W/m2
08:33 64.8 °F /  18.2 °C 59.5 °F /  15.3 °C 29.9in /  1011.2hPa ENE 2mph /  3.2km/h 3mph /  4.8km/h 83% 0in /  0.0mm 62 W/m2
08:38 65.1 °F /  18.4 °C 59.9 °F /  15.5 °C 29.9in /  1011.5hPa NNW 2mph /  3.2km/h 6mph /  9.7km/h 83% 0in /  0.0mm 63 W/m2
08:43 65.7 °F /  18.7 °C 60.1 °F /  15.6 °C 29.9in /  1011.5hPa NW 2mph /  3.2km/h 4mph /  6.4km/h 82% 0in /  0.0mm 56 W/m2
08:49 65.8 °F /  18.8 °C 59.9 °F /  15.5 °C 29.9in /  1011.5hPa WNW 4mph /  6.4km/h 7mph /  11.3km/h 81% 0in /  0.0mm 174 W/m2
08:54 66 °F /  18.9 °C 60.1 °F /  15.6 °C 29.9in /  1011.2hPa NW 2mph /  3.2km/h 4mph /  6.4km/h 81% 0in /  0.0mm 267 W/m2
08:59 66 °F /  18.9 °C 60.1 °F /  15.6 °C 29.9in /  1011.5hPa WNW 0.9mph /  1.4km/h 2mph /  3.2km/h 81% 0in /  0.0mm 276 W/m2
09:04 66.4 °F /  19.1 °C 60.1 °F /  15.6 °C 29.9in /  1011.5hPa NW 2mph /  3.2km/h 5mph /  8km/h 80% 0in /  0.0mm 279 W/m2
09:09 66.4 °F /  19.1 °C 60.1 °F /  15.6 °C 29.9in /  1011.5hPa NW 2.9mph /  4.7km/h 4mph /  6.4km/h 80% 0in /  0.0mm 313 W/m2
09:19 67.1 °F /  19.5 °C 60.8 °F /  16 °C 29.9in /  1011.5hPa Calm   1mph /  1.6km/h 80% 0in /  0.0mm 186 W/m2
09:24 67.3 °F /  19.6 °C 60.6 °F /  15.9 °C 29.9in /  1011.9hPa WNW 2mph /  3.2km/h 4mph /  6.4km/h 79% 0in /  0.0mm 339 W/m2
09:29 67.3 °F /  19.6 °C 60.6 °F /  15.9 °C 29.9in /  1011.5hPa SW 0.9mph /  1.4km/h 7mph /  11.3km/h 79% 0in /  0.0mm 383 W/m2
09:34 67.5 °F /  19.7 °C 60.8 °F /  16 °C 29.9in /  1011.5hPa Calm   2mph /  3.2km/h 79% 0in /  0.0mm 70 W/m2
09:39 67.8 °F /  19.9 °C 60.6 °F /  15.9 °C 29.9in /  1011.5hPa ESE 4mph /  6.4km/h 4mph /  6.4km/h 78% 0in /  0.0mm 137 W/m2
09:44 68 °F /  20 °C 60.4 °F /  15.8 °C 29.9in /  1011.5hPa ESE 2mph /  3.2km/h 4mph /  6.4km/h 77% 0in /  0.0mm 186 W/m2
09:49 68.2 °F /  20.1 °C 60.3 °F /  15.7 °C 29.9in /  1011.5hPa North 2mph /  3.2km/h 3mph /  4.8km/h 76% 0in /  0.0mm 130 W/m2
09:54 68.2 °F /  20.1 °C 60.3 °F /  15.7 °C 29.9in /  1011.5hPa NNW 2mph /  3.2km/h 2mph /  3.2km/h 76% 0in /  0.0mm 431 W/m2
09:59 68.2 °F /  20.1 °C 59.5 °F /  15.3 °C 29.9in /  1011.5hPa Calm   2mph /  3.2km/h 74% 0in /  0.0mm 339 W/m2
10:04 68.5 °F /  20.3 °C 59.9 °F /  15.5 °C 29.9in /  1011.5hPa Calm   1mph /  1.6km/h 74% 0in /  0.0mm 250 W/m2
10:09 69.1 °F /  20.6 °C 60.1 °F /  15.6 °C 29.9in /  1011.5hPa Calm   1mph /  1.6km/h 73% 0in /  0.0mm 197 W/m2
10:14 69.3 °F /  20.7 °C 59.9 °F /  15.5 °C 29.9in /  1011.5hPa Calm   2mph /  3.2km/h 72% 0in /  0.0mm 162 W/m2
10:19 69.6 °F /  20.9 °C 60.6 °F /  15.9 °C 29.9in /  1011.5hPa NE 0.9mph /  1.4km/h 1mph /  1.6km/h 73% 0in /  0.0mm 162 W/m2
10:25 69.6 °F /  20.9 °C 61 °F /  16.1 °C 29.9in /  1011.5hPa ENE 2.9mph /  4.7km/h 4mph /  6.4km/h 74% 0in /  0.0mm 160 W/m2
10:30 69.6 °F /  20.9 °C 60.6 °F /  15.9 °C 29.9in /  1011.5hPa East 0.9mph /  1.4km/h 3mph /  4.8km/h 73% 0in /  0.0mm 288 W/m2
10:35 70 °F /  21.1 °C 60.6 °F /  15.9 °C 29.9in /  1011.5hPa North 0.9mph /  1.4km/h 2mph /  3.2km/h 72% 0in /  0.0mm 311 W/m2
10:40 70 °F /  21.1 °C 60.6 °F /  15.9 °C 29.9in /  1011.5hPa NW 0.9mph /  1.4km/h 2mph /  3.2km/h 72% 0in /  0.0mm 360 W/m2
10:45 70.2 °F /  21.2 °C 60.3 °F /  15.7 °C 29.9in /  1011.5hPa NNW 0.9mph /  1.4km/h 3mph /  4.8km/h 71% 0in /  0.0mm 330 W/m2
10:50 70.2 °F /  21.2 °C 60.3 °F /  15.7 °C 29.9in /  1011.5hPa Calm   2mph /  3.2km/h 71% 0in /  0.0mm 318 W/m2
10:55 70.3 °F /  21.3 °C 59.7 °F /  15.4 °C 29.9in /  1011.5hPa West 2.9mph /  4.7km/h 5mph /  8km/h 69% 0in /  0.0mm 294 W/m2
11:00 70.9 °F /  21.6 °C 60.3 °F /  15.7 °C 29.9in /  1011.5hPa Calm   2mph /  3.2km/h 69% 0in /  0.0mm 281 W/m2
11:05 71.2 °F /  21.8 °C 59.7 °F /  15.4 °C 29.9in /  1011.5hPa WNW 0.9mph /  1.4km/h 5mph /  8km/h 67% 0in /  0.0mm 295 W/m2
11:10 71.4 °F /  21.9 °C 59.9 °F /  15.5 °C 29.9in /  1011.5hPa WSW 2.9mph /  4.7km/h 7mph /  11.3km/h 67% 0in /  0.0mm 299 W/m2
11:15 71.2 °F /  21.8 °C 60.6 °F /  15.9 °C 29.9in /  1011.5hPa NW 0.9mph /  1.4km/h 2mph /  3.2km/h 69% 0in /  0.0mm 360 W/m2
11:20 71.2 °F /  21.8 °C 59.7 °F /  15.4 °C 29.9in /  1011.5hPa West 2.9mph /  4.7km/h 4mph /  6.4km/h 67% 0in /  0.0mm 355 W/m2
11:25 71.2 °F /  21.8 °C 60.1 °F /  15.6 °C 29.9in /  1011.5hPa WNW 0.9mph /  1.4km/h 4mph /  6.4km/h 68% 0in /  0.0mm 353 W/m2
11:30 71.4 °F /  21.9 °C 60.3 °F /  15.7 °C 29.9in /  1011.5hPa NW 2.9mph /  4.7km/h 5mph /  8km/h 68% 0in /  0.0mm 301 W/m2
11:35 71.2 °F /  21.8 °C 60.6 °F /  15.9 °C 29.9in /  1011.5hPa NW 2mph /  3.2km/h 4mph /  6.4km/h 69% 0in /  0.0mm 206 W/m2
11:40 71.2 °F /  21.8 °C 60.6 °F /  15.9 °C 29.9in /  1011.5hPa NNW 2mph /  3.2km/h 4mph /  6.4km/h 69% 0in /  0.0mm 207 W/m2
11:45 71.2 °F /  21.8 °C 60.6 °F /  15.9 °C 29.9in /  1011.5hPa West 2mph /  3.2km/h 4mph /  6.4km/h 69% 0in /  0.0mm 733 W/m2
11:50 71.8 °F /  22.1 °C 60.3 °F /  15.7 °C 29.9in /  1011.5hPa WNW 4.9mph /  7.9km/h 6mph /  9.7km/h 67% 0in /  0.0mm 777 W/m2
11:55 72 °F /  22.2 °C 59.5 °F /  15.3 °C 29.9in /  1011.5hPa WSW 2mph /  3.2km/h 3mph /  4.8km/h 65% 0in /  0.0mm 749 W/m2
12:00 71.8 °F /  22.1 °C 59.4 °F /  15.2 °C 29.9in /  1011.5hPa Calm   1mph /  1.6km/h 65% 0in /  0.0mm 204 W/m2
12:05 72.1 °F /  22.3 °C 59.7 °F /  15.4 °C 29.9in /  1011.2hPa Calm   2mph /  3.2km/h 65% 0in /  0.0mm 838 W/m2
12:10 72.9 °F /  22.7 °C 59.9 °F /  15.5 °C 29.9in /  1011.2hPa South 0.9mph /  1.4km/h 3mph /  4.8km/h 64% 0in /  0.0mm 812 W/m2
12:15 73.2 °F /  22.9 °C 59.4 °F /  15.2 °C 29.9in /  1011.2hPa NNW 2.9mph /  4.7km/h 3mph /  4.8km/h 62% 0in /  0.0mm 923 W/m2
12:20 73.4 °F /  23 °C 59.2 °F /  15.1 °C 29.9in /  1011.2hPa West 6.9mph /  11.1km/h 9mph /  14.5km/h 61% 0in /  0.0mm 338 W/m2
12:25 73.2 °F /  22.9 °C 58.5 °F /  14.7 °C 29.9in /  1011.2hPa WNW 2mph /  3.2km/h 4mph /  6.4km/h 60% 0in /  0.0mm 308 W/m2
12:30 73.4 °F /  23 °C 58.3 °F /  14.6 °C 29.9in /  1011.2hPa WNW 4mph /  6.4km/h 6mph /  9.7km/h 59% 0in /  0.0mm 313 W/m2
12:35 73.4 °F /  23 °C 59.2 °F /  15.1 °C 29.9in /  1010.8hPa East 0.9mph /  1.4km/h 3mph /  4.8km/h 61% 0in /  0.0mm 329 W/m2
12:40 73.8 °F /  23.2 °C 58.5 °F /  14.7 °C 29.9in /  1011.2hPa West 8.9mph /  14.3km/h 9mph /  14.5km/h 59% 0in /  0.0mm 381 W/m2
12:45 73.9 °F /  23.3 °C 58.3 °F /  14.6 °C 29.9in /  1010.8hPa NW 2.9mph /  4.7km/h 7mph /  11.3km/h 58% 0in /  0.0mm 446 W/m2
12:50 74.5 °F /  23.6 °C 58.3 °F /  14.6 °C 29.9in /  1010.8hPa West 2mph /  3.2km/h 7mph /  11.3km/h 57% 0in /  0.0mm 311 W/m2
12:55 74.1 °F /  23.4 °C 58.5 °F /  14.7 °C 29.9in /  1010.8hPa WSW 2mph /  3.2km/h 9mph /  14.5km/h 58% 0in /  0.0mm 190 W/m2
13:00 73.9 °F /  23.3 °C 58.6 °F /  14.8 °C 29.9in /  1010.8hPa ESE 0.9mph /  1.4km/h 4mph /  6.4km/h 59% 0in /  0.0mm 160 W/m2
13:05 73.8 °F /  23.2 °C 58.5 °F /  14.7 °C 29.9in /  1010.8hPa West 4mph /  6.4km/h 6mph /  9.7km/h 59% 0in /  0.0mm 278 W/m2
13:10 73.6 °F /  23.1 °C 58.8 °F /  14.9 °C 29.9in /  1010.8hPa WNW 2.9mph /  4.7km/h 7mph /  11.3km/h 60% 0in /  0.0mm 329 W/m2
13:15 73.8 °F /  23.2 °C 59.5 °F /  15.3 °C 29.9in /  1010.8hPa West 6.9mph /  11.1km/h 8mph /  12.9km/h 61% 0in /  0.0mm 285 W/m2
13:20 73.8 °F /  23.2 °C 59 °F /  15 °C 29.8in /  1010.5hPa NNW 2mph /  3.2km/h 3mph /  4.8km/h 60% 0in /  0.0mm 309 W/m2
13:25 73.9 °F /  23.3 °C 58.6 °F /  14.8 °C 29.8in /  1010.5hPa North 2mph /  3.2km/h 8mph /  12.9km/h 59% 0in /  0.0mm 309 W/m2
13:30 74.8 °F /  23.8 °C 59.5 °F /  15.3 °C 29.8in /  1010.5hPa Calm   4mph /  6.4km/h 59% 0in /  0.0mm 668 W/m2
13:35 75.7 °F /  24.3 °C 59.4 °F /  15.2 °C 29.8in /  1010.5hPa WNW 2.9mph /  4.7km/h 3mph /  4.8km/h 57% 0in /  0.0mm 875 W/m2
13:40 76.1 °F /  24.5 °C 58.8 °F /  14.9 °C 29.8in /  1010.5hPa West 2.9mph /  4.7km/h 6mph /  9.7km/h 55% 0in /  0.0mm 919 W/m2
13:45 75.6 °F /  24.2 °C 58.3 °F /  14.6 °C 29.8in /  1010.5hPa NE 0.9mph /  1.4km/h 2mph /  3.2km/h 55% 0in /  0.0mm 183 W/m2
13:50 75.4 °F /  24.1 °C 58.1 °F /  14.5 °C 29.8in /  1010.5hPa North 0.9mph /  1.4km/h 6mph /  9.7km/h 55% 0in /  0.0mm 137 W/m2
13:55 75 °F /  23.9 °C 58.3 °F /  14.6 °C 29.8in /  1010.5hPa West 2.9mph /  4.7km/h 3mph /  4.8km/h 56% 0in /  0.0mm 127 W/m2
14:00 74.8 °F /  23.8 °C 59 °F /  15 °C 29.8in /  1010.2hPa North 2mph /  3.2km/h 3mph /  4.8km/h 58% 0in /  0.0mm 116 W/m2
14:05 74.5 °F /  23.6 °C 58.8 °F /  14.9 °C 29.8in /  1010.5hPa Calm   1mph /  1.6km/h 58% 0in /  0.0mm 104 W/m2
14:10 74.5 °F /  23.6 °C 59.2 °F /  15.1 °C 29.8in /  1010.5hPa WNW 0.9mph /  1.4km/h 3mph /  4.8km/h 59% 0in /  0.0mm 77 W/m2
14:15 74.5 °F /  23.6 °C 58.8 °F /  14.9 °C 29.8in /  1010.5hPa WNW 2mph /  3.2km/h 4mph /  6.4km/h 58% 0in /  0.0mm 72 W/m2
14:20 74.1 °F /  23.4 °C 61.2 °F /  16.2 °C 29.8in /  1010.5hPa Calm   1mph /  1.6km/h 64% 0in /  0.0mm 84 W/m2
14:25 73.8 °F /  23.2 °C 60.8 °F /  16 °C 29.8in /  1010.5hPa Calm   4mph /  6.4km/h 64% 0in /  0.0mm 98 W/m2
14:30 73.6 °F /  23.1 °C 60.6 °F /  15.9 °C 29.8in /  1010.5hPa Calm   1mph /  1.6km/h 64% 0in /  0.0mm 86 W/m2
14:35 73.4 °F /  23 °C 59.5 °F /  15.3 °C 29.8in /  1010.5hPa WNW 0.9mph /  1.4km/h 4mph /  6.4km/h 62% 0in /  0.0mm 109 W/m2
14:40 73 °F /  22.8 °C 60.1 °F /  15.6 °C 29.8in /  1010.5hPa NW 2mph /  3.2km/h 7mph /  11.3km/h 64% 0in /  0.0mm 128 W/m2
14:45 72.5 °F /  22.5 °C 61.7 °F /  16.5 °C 29.8in /  1010.5hPa West 2.9mph /  4.7km/h 4mph /  6.4km/h 69% 0in /  0.0mm 118 W/m2
14:50 71.8 °F /  22.1 °C 61 °F /  16.1 °C 29.8in /  1010.5hPa NW 2mph /  3.2km/h 2mph /  3.2km/h 69% 0in /  0.0mm 102 W/m2
14:55 71.2 °F /  21.8 °C 61.7 °F /  16.5 °C 29.8in /  1010.5hPa WNW 2mph /  3.2km/h 4mph /  6.4km/h 72% 0.01in /  0.2mm 88 W/m2
15:00 70.3 °F /  21.3 °C 61.7 °F /  16.5 °C 29.8in /  1010.5hPa NNW 0.9mph /  1.4km/h 4mph /  6.4km/h 74% 0.02in /  0.5mm 95 W/m2
15:05 69.4 °F /  20.8 °C 62.2 °F /  16.8 °C 29.8in /  1010.5hPa WNW 2mph /  3.2km/h 7mph /  11.3km/h 78% 0.02in /  0.5mm 127 W/m2
15:10 68.7 °F /  20.4 °C 62.6 °F /  17 °C 29.8in /  1010.5hPa West 4mph /  6.4km/h 8mph /  12.9km/h 81% 0.02in /  0.5mm 285 W/m2
15:15 68.5 °F /  20.3 °C 63.1 °F /  17.3 °C 29.8in /  1010.5hPa WNW 2mph /  3.2km/h 3mph /  4.8km/h 83% 0.02in /  0.5mm 327 W/m2
15:20 69.1 °F /  20.6 °C 63.7 °F /  17.6 °C 29.8in /  1010.5hPa NW 2.9mph /  4.7km/h 8mph /  12.9km/h 83% 0.02in /  0.5mm 947 W/m2
15:25 70 °F /  21.1 °C 64.6 °F /  18.1 °C 29.8in /  1010.2hPa NW 2mph /  3.2km/h 4mph /  6.4km/h 83% 0.02in /  0.5mm 884 W/m2
15:30 71.2 °F /  21.8 °C 64.4 °F /  18 °C 29.8in /  1010.2hPa NW 6mph /  9.7km/h 6mph /  9.7km/h 79% 0.02in /  0.5mm 786 W/m2
15:35 72.1 °F /  22.3 °C 64.6 °F /  18.1 °C 29.8in /  1010.2hPa WNW 2mph /  3.2km/h 4mph /  6.4km/h 77% 0.02in /  0.5mm 800 W/m2
15:40 72.7 °F /  22.6 °C 63.9 °F /  17.7 °C 29.8in /  1010.2hPa North 2.9mph /  4.7km/h 4mph /  6.4km/h 74% 0.02in /  0.5mm 327 W/m2
15:45 72.9 °F /  22.7 °C 63.7 °F /  17.6 °C 29.8in /  1009.8hPa NW 0.9mph /  1.4km/h 5mph /  8km/h 73% 0.02in /  0.5mm 258 W/m2
15:50 72.9 °F /  22.7 °C 64.4 °F /  18 °C 29.8in /  1009.8hPa WSW 0.9mph /  1.4km/h 3mph /  4.8km/h 75% 0.02in /  0.5mm 188 W/m2
15:55 72.7 °F /  22.6 °C 64.2 °F /  17.9 °C 29.8in /  1009.8hPa WSW 0.9mph /  1.4km/h 3mph /  4.8km/h 75% 0.02in /  0.5mm 183 W/m2
16:00 72.3 °F /  22.4 °C 63.5 °F /  17.5 °C 29.8in /  1009.8hPa NNW 0.9mph /  1.4km/h 3mph /  4.8km/h 74% 0.01in /  0.2mm 209 W/m2
16:05 72.3 °F /  22.4 °C 63.5 °F /  17.5 °C 29.8in /  1009.8hPa West 2mph /  3.2km/h 2mph /  3.2km/h 74% 0.01in /  0.2mm 232 W/m2
16:10 72.1 °F /  22.3 °C 63.3 °F /  17.4 °C 29.8in /  1009.8hPa WNW 0.9mph /  1.4km/h 4mph /  6.4km/h 74% 0in /  0.0mm 148 W/m2
16:15 72.1 °F /  22.3 °C 63.3 °F /  17.4 °C 29.8in /  1009.8hPa West 2.9mph /  4.7km/h 4mph /  6.4km/h 74% 0in /  0.0mm 162 W/m2
16:20 72 °F /  22.2 °C 64.4 °F /  18 °C 29.8in /  1009.8hPa West 2.9mph /  4.7km/h 4mph /  6.4km/h 77% 0in /  0.0mm 186 W/m2
16:25 72.1 °F /  22.3 °C 64.9 °F /  18.3 °C 29.8in /  1009.8hPa WNW 2.9mph /  4.7km/h 5mph /  8km/h 78% 0in /  0.0mm 802 W/m2
16:30 72 °F /  22.2 °C 64.4 °F /  18 °C 29.8in /  1009.8hPa North 4mph /  6.4km/h 8mph /  12.9km/h 77% 0in /  0.0mm 281 W/m2
16:35 71.4 °F /  21.9 °C 63.5 °F /  17.5 °C 29.8in /  1009.8hPa NW 4.9mph /  7.9km/h 8mph /  12.9km/h 76% 0in /  0.0mm 148 W/m2
16:41 70.9 °F /  21.6 °C 62.2 °F /  16.8 °C 29.8in /  1009.8hPa WSW 2.9mph /  4.7km/h 7mph /  11.3km/h 74% 0in /  0.0mm 121 W/m2
16:46 70 °F /  21.1 °C 60.6 °F /  15.9 °C 29.8in /  1009.8hPa WNW 2.9mph /  4.7km/h 5mph /  8km/h 72% 0in /  0.0mm 90 W/m2
16:51 69.4 °F /  20.8 °C 60.1 °F /  15.6 °C 29.8in /  1009.8hPa WSW 4mph /  6.4km/h 6mph /  9.7km/h 72% 0in /  0.0mm 49 W/m2
16:56 69.3 °F /  20.7 °C 60.6 °F /  15.9 °C 29.8in /  1009.8hPa WNW 4mph /  6.4km/h 4mph /  6.4km/h 74% 0in /  0.0mm 30 W/m2
17:01 68.9 °F /  20.5 °C 60.6 °F /  15.9 °C 29.8in /  1009.8hPa West 6mph /  9.7km/h 10mph /  16.1km/h 75% 0in /  0.0mm 14 W/m2
17:06 68.2 °F /  20.1 °C 59.2 °F /  15.1 °C 29.8in /  1010.2hPa West 13mph /  20.9km/h 14mph /  22.5km/h 73% 0.02in /  0.5mm 7 W/m2
17:11 65.7 °F /  18.7 °C 59.4 °F /  15.2 °C 29.8in /  1010.5hPa WNW 18mph /  29km/h 18mph /  29km/h 80% 0.11in /  2.8mm 7 W/m2
17:16 62.1 °F /  16.7 °C 57.6 °F /  14.2 °C 29.9in /  1010.8hPa NW 11mph /  17.7km/h 16mph /  25.7km/h 85% 0.37in /  9.4mm 9 W/m2
17:21 61 °F /  16.1 °C 56.8 °F /  13.8 °C 29.9in /  1010.8hPa SW 4.9mph /  7.9km/h 9mph /  14.5km/h 86% 0.61in /  15.5mm 26 W/m2
17:26 60.6 °F /  15.9 °C 57.4 °F /  14.1 °C 29.8in /  1010.5hPa Calm   3mph /  4.8km/h 89% 0.69in /  17.5mm 109 W/m2
17:31 60.4 °F /  15.8 °C 57.7 °F /  14.3 °C 29.8in /  1010.5hPa SSW 0.9mph /  1.4km/h 2mph /  3.2km/h 91% 0.69in /  17.5mm 162 W/m2
17:36 61.2 °F /  16.2 °C 59.2 °F /  15.1 °C 29.8in /  1010.5hPa SSW 0.9mph /  1.4km/h 3mph /  4.8km/h 93% 0.69in /  17.5mm 221 W/m2
17:41 61.5 °F /  16.4 °C 59.5 °F /  15.3 °C 29.8in /  1010.2hPa SSE 0.9mph /  1.4km/h 3mph /  4.8km/h 93% 0.69in /  17.5mm 255 W/m2
17:46 62.1 °F /  16.7 °C 60.3 °F /  15.7 °C 29.8in /  1010.2hPa Calm     94% 0.69in /  17.5mm 251 W/m2
17:51 62.6 °F /  17 °C 60.8 °F /  16 °C 29.8in /  1010.2hPa Calm   2mph /  3.2km/h 94% 0.69in /  17.5mm 255 W/m2
17:56 63 °F /  17.2 °C 61.2 °F /  16.2 °C 29.8in /  1010.2hPa Calm   1mph /  1.6km/h 94% 0.69in /  17.5mm 290 W/m2
18:01 63.7 °F /  17.6 °C 62.2 °F /  16.8 °C 29.8in /  1010.2hPa Calm     95% 0.69in /  17.5mm 185 W/m2
18:06 64 °F /  17.8 °C 62.6 °F /  17 °C 29.8in /  1010.2hPa WSW 2mph /  3.2km/h 2mph /  3.2km/h 95% 0.68in /  17.3mm 144 W/m2
18:11 64 °F /  17.8 °C 62.2 °F /  16.8 °C 29.8in /  1010.2hPa Calm     94% 0.55in /  14.0mm 125 W/m2
18:16 63.9 °F /  17.7 °C 62.1 °F /  16.7 °C 29.8in /  1010.2hPa WSW 0.9mph /  1.4km/h 2mph /  3.2km/h 94% 0.31in /  7.9mm 118 W/m2
18:21 63.9 °F /  17.7 °C 62.1 °F /  16.7 °C 29.8in /  1010.2hPa SW 0.9mph /  1.4km/h 1mph /  1.6km/h 94% 0.06in /  1.5mm 104 W/m2
18:26 63.7 °F /  17.6 °C 61.9 °F /  16.6 °C 29.8in /  1010.2hPa Calm   2mph /  3.2km/h 94% 0.01in /  0.2mm 109 W/m2
18:31 63.9 °F /  17.7 °C 62.1 °F /  16.7 °C 29.8in /  1010.2hPa SW 0.9mph /  1.4km/h 1mph /  1.6km/h 94% 0in /  0.0mm 107 W/m2
18:37 63.9 °F /  17.7 °C 62.1 °F /  16.7 °C 29.8in /  1010.2hPa SW 0.9mph /  1.4km/h 2mph /  3.2km/h 94% 0in /  0.0mm 135 W/m2
18:42 64 °F /  17.8 °C 62.2 °F /  16.8 °C 29.8in /  1010.2hPa Calm   1mph /  1.6km/h 94% 0in /  0.0mm 156 W/m2
18:47 64.6 °F /  18.1 °C 63.1 °F /  17.3 °C 29.8in /  1010.2hPa Calm     95% 0in /  0.0mm 269 W/m2
18:52 64.9 °F /  18.3 °C 63.5 °F /  17.5 °C 29.8in /  1010.2hPa SW 2mph /  3.2km/h 2mph /  3.2km/h 95% 0in /  0.0mm 378 W/m2
18:57 65.1 °F /  18.4 °C 63.3 °F /  17.4 °C 29.8in /  1010.2hPa West 0.9mph /  1.4km/h 2mph /  3.2km/h 94% 0in /  0.0mm 339 W/m2
19:02 65.5 °F /  18.6 °C 63.7 °F /  17.6 °C 29.8in /  1010.2hPa West 0.9mph /  1.4km/h 2mph /  3.2km/h 94% 0in /  0.0mm 315 W/m2
19:07 65.7 °F /  18.7 °C 63.9 °F /  17.7 °C 29.8in /  1010.2hPa West 0.9mph /  1.4km/h 2mph /  3.2km/h 94% 0in /  0.0mm 165 W/m2
19:12 66.2 °F /  19 °C 64.4 °F /  18 °C 29.8in /  1010.2hPa Calm     94% 0in /  0.0mm 156 W/m2
19:17 66.6 °F /  19.2 °C 64.8 °F /  18.2 °C 29.8in /  1010.2hPa Calm     94% 0in /  0.0mm 192 W/m2
19:22 66.9 °F /  19.4 °C 65.1 °F /  18.4 °C 29.8in /  1010.2hPa West 0.9mph /  1.4km/h 2mph /  3.2km/h 94% 0in /  0.0mm 174 W/m2
19:27 66.7 °F /  19.3 °C 64.6 °F /  18.1 °C 29.8in /  1009.8hPa Calm   1mph /  1.6km/h 93% 0in /  0.0mm 156 W/m2
19:32 66.7 °F /  19.3 °C 64.6 °F /  18.1 °C 29.8in /  1009.8hPa Calm     93% 0in /  0.0mm 135 W/m2
19:37 66.7 °F /  19.3 °C 64.6 °F /  18.1 °C 29.8in /  1010.2hPa Calm     93% 0in /  0.0mm 107 W/m2
19:42 66.7 °F /  19.3 °C 64.6 °F /  18.1 °C 29.8in /  1010.2hPa Calm     93% 0in /  0.0mm 97 W/m2
19:47 66.6 °F /  19.2 °C 64.4 °F /  18 °C 29.8in /  1010.2hPa Calm   1mph /  1.6km/h 93% 0in /  0.0mm 88 W/m2
19:52 66.6 °F /  19.2 °C 64.4 °F /  18 °C 29.8in /  1010.2hPa SW 0.9mph /  1.4km/h 1mph /  1.6km/h 93% 0in /  0.0mm 84 W/m2
19:57 66.4 °F /  19.1 °C 64.2 °F /  17.9 °C 29.8in /  1010.2hPa Calm   2mph /  3.2km/h 93% 0in /  0.0mm 77 W/m2
20:02 66.4 °F /  19.1 °C 64.2 °F /  17.9 °C 29.8in /  1010.2hPa Calm   1mph /  1.6km/h 93% 0in /  0.0mm 69 W/m2
20:07 66 °F /  18.9 °C 63.9 °F /  17.7 °C 29.8in /  1010.2hPa South 0.9mph /  1.4km/h 2mph /  3.2km/h 93% 0in /  0.0mm 25 W/m2
20:12 65.8 °F /  18.8 °C 63.7 °F /  17.6 °C 29.8in /  1010.2hPa Calm     93% 0in /  0.0mm 23 W/m2
20:17 65.7 °F /  18.7 °C 63.3 °F /  17.4 °C 29.8in /  1010.5hPa Calm   2mph /  3.2km/h 92% 0in /  0.0mm 18 W/m2
20:22 65.5 °F /  18.6 °C 63.3 °F /  17.4 °C 29.8in /  1010.5hPa Calm     93% 0in /  0.0mm 14 W/m2
20:27 65.1 °F /  18.4 °C 63 °F /  17.2 °C 29.8in /  1010.5hPa Calm     93% 0in /  0.0mm 12 W/m2
20:32 64.8 °F /  18.2 °C 62.4 °F /  16.9 °C 29.8in /  1010.5hPa Calm     92% 0in /  0.0mm 9 W/m2
20:38 64.4 °F /  18 °C 62.4 °F /  16.9 °C 29.8in /  1010.5hPa South 0.9mph /  1.4km/h 2mph /  3.2km/h 93% 0in /  0.0mm 7 W/m2
20:43 64 °F /  17.8 °C 62.1 °F /  16.7 °C 29.8in /  1010.5hPa Calm     93% 0in /  0.0mm 5 W/m2
20:48 63.7 °F /  17.6 °C 61.7 °F /  16.5 °C 29.8in /  1010.5hPa South 0.9mph /  1.4km/h 1mph /  1.6km/h 93% 0in /  0.0mm 0 W/m2
20:53 63.3 °F /  17.4 °C 61.3 °F /  16.3 °C 29.8in /  1010.5hPa Calm   1mph /  1.6km/h 93% 0in /  0.0mm 0 W/m2
20:58 63.1 °F /  17.3 °C 61.2 °F /  16.2 °C 29.8in /  1010.5hPa Calm     93% 0in /  0.0mm 0 W/m2
21:03 63 °F /  17.2 °C 61 °F /  16.1 °C 29.8in /  1010.5hPa Calm   1mph /  1.6km/h 93% 0in /  0.0mm 0 W/m2
21:08 62.8 °F /  17.1 °C 61 °F /  16.1 °C 29.8in /  1010.5hPa Calm     94% 0in /  0.0mm 0 W/m2
21:13 62.4 °F /  16.9 °C 60.6 °F /  15.9 °C 29.9in /  1010.8hPa Calm     94% 0in /  0.0mm 0 W/m2
21:18 62.2 °F /  16.8 °C 60.4 °F /  15.8 °C 29.9in /  1010.8hPa Calm     94% 0in /  0.0mm 0 W/m2
21:23 62.1 °F /  16.7 °C 60.3 °F /  15.7 °C 29.9in /  1010.8hPa Calm     94% 0in /  0.0mm 0 W/m2
21:28 61.9 °F /  16.6 °C 60.1 °F /  15.6 °C 29.9in /  1010.8hPa Calm     94% 0in /  0.0mm 0 W/m2
21:33 61.9 °F /  16.6 °C 60.1 °F /  15.6 °C 29.9in /  1010.8hPa Calm     94% 0in /  0.0mm 0 W/m2
21:38 61.5 °F /  16.4 °C 59.7 °F /  15.4 °C 29.9in /  1010.8hPa Calm     94% 0in /  0.0mm 0 W/m2
21:43 61.3 °F /  16.3 °C 59.5 °F /  15.3 °C 29.9in /  1010.8hPa Calm     94% 0in /  0.0mm 0 W/m2
21:48 61.2 °F /  16.2 °C 59.4 °F /  15.2 °C 29.9in /  1010.8hPa Calm     94% 0in /  0.0mm 0 W/m2
21:53 60.6 °F /  15.9 °C 58.8 °F /  14.9 °C 29.9in /  1010.8hPa Calm     94% 0in /  0.0mm 0 W/m2
21:58 60.3 °F /  15.7 °C 58.5 °F /  14.7 °C 29.9in /  1010.8hPa Calm     94% 0in /  0.0mm 0 W/m2
22:03 59.9 °F /  15.5 °C 58.1 °F /  14.5 °C 29.9in /  1010.8hPa Calm     94% 0in /  0.0mm 0 W/m2
22:08 59.5 °F /  15.3 °C 57.7 °F /  14.3 °C 29.9in /  1010.8hPa Calm     94% 0in /  0.0mm 0 W/m2
22:13 59.5 °F /  15.3 °C 58.1 °F /  14.5 °C 29.9in /  1010.8hPa Calm     95% 0in /  0.0mm 0 W/m2
22:18 59.4 °F /  15.2 °C 57.6 °F /  14.2 °C 29.9in /  1011.2hPa Calm     94% 0in /  0.0mm 0 W/m2
22:23 59.4 °F /  15.2 °C 57.9 °F /  14.4 °C 29.9in /  1011.2hPa Calm     95% 0in /  0.0mm 0 W/m2
22:28 59.4 °F /  15.2 °C 57.9 °F /  14.4 °C 29.9in /  1011.2hPa Calm     95% 0in /  0.0mm 0 W/m2
22:33 59.2 °F /  15.1 °C 57.7 °F /  14.3 °C 29.9in /  1011.2hPa Calm     95% 0in /  0.0mm 0 W/m2
22:38 59.2 °F /  15.1 °C 57.7 °F /  14.3 °C 29.9in /  1011.2hPa Calm     95% 0in /  0.0mm 0 W/m2
22:43 59 °F /  15 °C 57.6 °F /  14.2 °C 29.9in /  1011.2hPa Calm     95% 0in /  0.0mm 0 W/m2
22:48 59 °F /  15 °C 57.6 °F /  14.2 °C 29.9in /  1011.2hPa South 0.9mph /  1.4km/h 2mph /  3.2km/h 95% 0in /  0.0mm 0 W/m2
22:53 59 °F /  15 °C 57.6 °F /  14.2 °C 29.9in /  1011.2hPa Calm     95% 0in /  0.0mm 0 W/m2
22:58 59 °F /  15 °C 57.9 °F /  14.4 °C 29.9in /  1011.2hPa Calm   2mph /  3.2km/h 96% 0in /  0.0mm 0 W/m2
23:03 59 °F /  15 °C 57.9 °F /  14.4 °C 29.9in /  1011.2hPa Calm     96% 0in /  0.0mm 0 W/m2
23:08 59.2 °F /  15.1 °C 57.7 °F /  14.3 °C 29.9in /  1011.2hPa Calm     95% 0in /  0.0mm 0 W/m2
23:13 59.2 °F /  15.1 °C 58.1 °F /  14.5 °C 29.9in /  1011.2hPa Calm     96% 0in /  0.0mm 0 W/m2
23:18 59.4 °F /  15.2 °C 58.3 °F /  14.6 °C 29.9in /  1011.2hPa Calm     96% 0in /  0.0mm 0 W/m2
23:23 59.4 °F /  15.2 °C 58.3 °F /  14.6 °C 29.9in /  1011.2hPa Calm     96% 0in /  0.0mm 0 W/m2
23:28 59.4 °F /  15.2 °C 58.3 °F /  14.6 °C 29.9in /  1011.2hPa Calm     96% 0in /  0.0mm 0 W/m2
23:33 59.4 °F /  15.2 °C 58.3 °F /  14.6 °C 29.9in /  1011.2hPa Calm   1mph /  1.6km/h 96% 0in /  0.0mm 0 W/m2
23:38 59.5 °F /  15.3 °C 58.5 °F /  14.7 °C 29.9in /  1011.2hPa Calm     96% 0in /  0.0mm 0 W/m2
23:44 59.4 °F /  15.2 °C 58.3 °F /  14.6 °C 29.9in /  1011.2hPa Calm   1mph /  1.6km/h 96% 0in /  0.0mm 0 W/m2
23:49 59.4 °F /  15.2 °C 58.3 °F /  14.6 °C 29.9in /  1011.2hPa Calm     96% 0in /  0.0mm 0 W/m2
23:54 59.2 °F /  15.1 °C 58.1 °F /  14.5 °C 29.9in /  1011.2hPa Calm     96% 0in /  0.0mm 0 W/m2
23:59 59.2 °F /  15.1 °C 58.1 °F /  14.5 °C 29.9in /  1011.2hPa Calm     96% 0in /  0.0mm 0 W/m2
Juneau County Weather
Compliments of Weather Underground - 4 mb